sensor_id;sensor_type;location;lat;lon;timestamp;P1;durP1;ratioP1;P2;durP2;ratioP2
75285;SDS011;63879;46.064;14.532;2022-12-18T07:01:12;28.70;;;12.63;;
75285;SDS011;63879;46.064;14.532;2022-12-18T07:03:38;27.30;;;13.32;;
75285;SDS011;63879;46.064;14.532;2022-12-18T07:06:04;25.35;;;12.85;;
75285;SDS011;63879;46.064;14.532;2022-12-18T07:08:30;27.35;;;12.82;;
75285;SDS011;63879;46.064;14.532;2022-12-18T07:10:56;26.58;;;13.15;;
75285;SDS011;63879;46.064;14.532;2022-12-18T07:13:21;28.35;;;13.80;;
75285;SDS011;63879;46.064;14.532;2022-12-18T07:15:46;31.38;;;13.50;;
75285;SDS011;63879;46.064;14.532;2022-12-18T07:18:12;32.27;;;13.37;;
75285;SDS011;63879;46.064;14.532;2022-12-18T07:20:37;30.08;;;13.70;;
75285;SDS011;63879;46.064;14.532;2022-12-18T07:23:03;27.87;;;13.23;;
75285;SDS011;63879;46.064;14.532;2022-12-18T07:25:30;25.90;;;14.48;;
75285;SDS011;63879;46.064;14.532;2022-12-18T07:27:58;28.38;;;13.95;;
75285;SDS011;63879;46.064;14.532;2022-12-18T07:30:23;28.70;;;12.53;;
75285;SDS011;63879;46.064;14.532;2022-12-18T07:32:48;27.97;;;13.27;;
75285;SDS011;63879;46.064;14.532;2022-12-18T07:35:14;25.17;;;13.67;;
75285;SDS011;63879;46.064;14.532;2022-12-18T07:37:39;25.30;;;13.45;;
75285;SDS011;63879;46.064;14.532;2022-12-18T07:40:05;30.42;;;13.18;;
75285;SDS011;63879;46.064;14.532;2022-12-18T07:42:31;31.75;;;16.00;;
75285;SDS011;63879;46.064;14.532;2022-12-18T07:44:57;32.17;;;14.32;;
75285;SDS011;63879;46.064;14.532;2022-12-18T07:47:23;33.17;;;15.60;;
75285;SDS011;63879;46.064;14.532;2022-12-18T07:49:48;31.80;;;15.90;;
75285;SDS011;63879;46.064;14.532;2022-12-18T07:52:13;32.95;;;14.65;;
75285;SDS011;63879;46.064;14.532;2022-12-18T07:54:39;32.25;;;13.98;;
75285;SDS011;63879;46.064;14.532;2022-12-18T07:57:05;34.20;;;16.20;;
75285;SDS011;63879;46.064;14.532;2022-12-18T07:59:31;32.88;;;15.98;;
75285;SDS011;63879;46.064;14.532;2022-12-18T08:01:56;34.47;;;15.73;;
75285;SDS011;63879;46.064;14.532;2022-12-18T08:04:22;34.35;;;15.80;;
75285;SDS011;63879;46.064;14.532;2022-12-18T08:06:47;31.05;;;15.35;;
75285;SDS011;63879;46.064;14.532;2022-12-18T08:09:12;36.28;;;16.98;;
75285;SDS011;63879;46.064;14.532;2022-12-18T08:11:38;34.35;;;17.50;;
75285;SDS011;63879;46.064;14.532;2022-12-18T08:14:03;34.95;;;16.20;;
75285;SDS011;63879;46.064;14.532;2022-12-18T08:16:29;39.33;;;21.00;;
75285;SDS011;63879;46.064;14.532;2022-12-18T08:18:55;33.78;;;17.10;;
75285;SDS011;63879;46.064;14.532;2022-12-18T08:21:22;33.15;;;16.75;;
75285;SDS011;63879;46.064;14.532;2022-12-18T08:23:52;34.22;;;18.25;;
75285;SDS011;63879;46.064;14.532;2022-12-18T08:26:18;33.78;;;16.13;;
75285;SDS011;63879;46.064;14.532;2022-12-18T08:28:44;31.05;;;15.95;;
75285;SDS011;63879;46.064;14.532;2022-12-18T08:31:10;33.47;;;15.68;;
75285;SDS011;63879;46.064;14.532;2022-12-18T08:33:36;34.67;;;16.63;;
75285;SDS011;63879;46.064;14.532;2022-12-18T08:36:02;31.25;;;15.25;;
75285;SDS011;63879;46.064;14.532;2022-12-18T08:38:28;32.55;;;14.60;;
75285;SDS011;63879;46.064;14.532;2022-12-18T08:40:58;33.53;;;15.30;;
75285;SDS011;63879;46.064;14.532;2022-12-18T08:43:24;32.28;;;15.38;;
75285;SDS011;63879;46.064;14.532;2022-12-18T08:46:08;27.85;;;13.05;;
75285;SDS011;63879;46.064;14.532;2022-12-18T08:48:34;31.13;;;14.10;;
75285;SDS011;63879;46.064;14.532;2022-12-18T08:51:00;27.10;;;13.52;;
75285;SDS011;63879;46.064;14.532;2022-12-18T08:53:26;29.27;;;14.17;;
75285;SDS011;63879;46.064;14.532;2022-12-18T08:55:51;27.85;;;14.65;;
75285;SDS011;63879;46.064;14.532;2022-12-18T08:58:17;28.30;;;14.88;;
75285;SDS011;63879;46.064;14.532;2022-12-18T09:00:42;29.30;;;15.13;;
75285;SDS011;63879;46.064;14.532;2022-12-18T09:03:12;29.73;;;13.65;;
75285;SDS011;63879;46.064;14.532;2022-12-18T09:05:38;29.70;;;13.80;;
75285;SDS011;63879;46.064;14.532;2022-12-18T09:08:03;31.75;;;15.52;;
75285;SDS011;63879;46.064;14.532;2022-12-18T09:10:29;31.58;;;14.98;;
75285;SDS011;63879;46.064;14.532;2022-12-18T09:12:54;30.63;;;15.00;;
75285;SDS011;63879;46.064;14.532;2022-12-18T09:15:21;28.67;;;14.20;;
75285;SDS011;63879;46.064;14.532;2022-12-18T09:17:46;29.00;;;13.88;;
75285;SDS011;63879;46.064;14.532;2022-12-18T09:20:13;30.33;;;14.38;;
75285;SDS011;63879;46.064;14.532;2022-12-18T09:22:38;27.48;;;13.43;;
75285;SDS011;63879;46.064;14.532;2022-12-18T09:25:07;23.17;;;11.93;;
75285;SDS011;63879;46.064;14.532;2022-12-18T09:27:33;27.05;;;13.32;;
75285;SDS011;63879;46.064;14.532;2022-12-18T09:29:58;25.25;;;13.77;;
75285;SDS011;63879;46.064;14.532;2022-12-18T09:32:24;29.33;;;14.18;;
75285;SDS011;63879;46.064;14.532;2022-12-18T09:34:49;29.63;;;13.47;;
75285;SDS011;63879;46.064;14.532;2022-12-18T09:37:15;29.70;;;14.25;;
75285;SDS011;63879;46.064;14.532;2022-12-18T09:39:40;30.05;;;14.32;;
75285;SDS011;63879;46.064;14.532;2022-12-18T09:42:05;25.53;;;13.07;;
75285;SDS011;63879;46.064;14.532;2022-12-18T09:44:44;28.27;;;13.80;;
75285;SDS011;63879;46.064;14.532;2022-12-18T09:49:46;28.95;;;13.75;;
75285;SDS011;63879;46.064;14.532;2022-12-18T09:54:46;27.30;;;12.80;;
75285;SDS011;63879;46.064;14.532;2022-12-18T09:57:33;27.45;;;13.65;;
75285;SDS011;63879;46.064;14.532;2022-12-18T10:00:04;28.63;;;13.82;;
75285;SDS011;63879;46.064;14.532;2022-12-18T10:02:41;26.33;;;13.68;;
75285;SDS011;63879;46.064;14.532;2022-12-18T10:05:29;29.43;;;13.37;;
75285;SDS011;63879;46.064;14.532;2022-12-18T10:10:52;28.10;;;14.35;;
75285;SDS011;63879;46.064;14.532;2022-12-18T10:15:54;27.83;;;14.73;;
75285;SDS011;63879;46.064;14.532;2022-12-18T10:18:33;35.08;;;15.57;;
75285;SDS011;63879;46.064;14.532;2022-12-18T10:21:13;31.83;;;14.55;;
75285;SDS011;63879;46.064;14.532;2022-12-18T10:26:40;28.02;;;12.88;;
75285;SDS011;63879;46.064;14.532;2022-12-18T10:29:13;29.88;;;13.25;;
75285;SDS011;63879;46.064;14.532;2022-12-18T10:31:39;25.48;;;12.25;;
75285;SDS011;63879;46.064;14.532;2022-12-18T10:34:08;25.77;;;12.57;;
75285;SDS011;63879;46.064;14.532;2022-12-18T10:36:35;28.17;;;13.93;;
75285;SDS011;63879;46.064;14.532;2022-12-18T10:39:22;30.75;;;14.07;;
75285;SDS011;63879;46.064;14.532;2022-12-18T10:41:57;28.73;;;12.23;;
75285;SDS011;63879;46.064;14.532;2022-12-18T10:44:37;20.17;;;9.77;;
75285;SDS011;63879;46.064;14.532;2022-12-18T10:47:03;20.57;;;9.33;;
75285;SDS011;63879;46.064;14.532;2022-12-18T10:49:31;15.50;;;8.88;;
75285;SDS011;63879;46.064;14.532;2022-12-18T10:54:55;12.55;;;6.30;;
75285;SDS011;63879;46.064;14.532;2022-12-18T11:00:21;15.68;;;6.28;;
75285;SDS011;63879;46.064;14.532;2022-12-18T11:02:49;17.23;;;7.78;;
75285;SDS011;63879;46.064;14.532;2022-12-18T11:07:50;17.70;;;9.05;;
75285;SDS011;63879;46.064;14.532;2022-12-18T11:10:19;20.17;;;9.02;;
75285;SDS011;63879;46.064;14.532;2022-12-18T11:12:46;17.35;;;8.88;;
75285;SDS011;63879;46.064;14.532;2022-12-18T11:15:23;15.02;;;7.55;;
75285;SDS011;63879;46.064;14.532;2022-12-18T11:17:54;15.25;;;8.75;;
75285;SDS011;63879;46.064;14.532;2022-12-18T11:20:33;17.25;;;8.38;;
75285;SDS011;63879;46.064;14.532;2022-12-18T11:23:00;16.00;;;7.63;;
75285;SDS011;63879;46.064;14.532;2022-12-18T11:25:28;17.35;;;7.82;;
75285;SDS011;63879;46.064;14.532;2022-12-18T11:28:02;16.67;;;7.75;;
75285;SDS011;63879;46.064;14.532;2022-12-18T11:30:30;16.27;;;7.75;;
75285;SDS011;63879;46.064;14.532;2022-12-18T11:33:00;16.77;;;6.68;;
75285;SDS011;63879;46.064;14.532;2022-12-18T11:37:58;13.23;;;7.63;;
75285;SDS011;63879;46.064;14.532;2022-12-18T11:40:37;13.48;;;5.88;;
75285;SDS011;63879;46.064;14.532;2022-12-18T11:43:08;17.25;;;7.85;;
75285;SDS011;63879;46.064;14.532;2022-12-18T11:45:40;17.13;;;8.27;;
75285;SDS011;63879;46.064;14.532;2022-12-18T11:48:30;16.95;;;7.18;;
75285;SDS011;63879;46.064;14.532;2022-12-18T11:50:56;14.85;;;7.88;;
75285;SDS011;63879;46.064;14.532;2022-12-18T11:53:24;16.77;;;7.30;;
75285;SDS011;63879;46.064;14.532;2022-12-18T11:58:48;17.10;;;8.48;;
75285;SDS011;63879;46.064;14.532;2022-12-18T12:18:15;15.30;;;7.85;;
75285;SDS011;63879;46.064;14.532;2022-12-18T12:23:27;17.65;;;8.70;;
75285;SDS011;63879;46.064;14.532;2022-12-18T12:25:59;14.27;;;7.78;;
75285;SDS011;63879;46.064;14.532;2022-12-18T12:39:42;13.32;;;7.60;;
75285;SDS011;63879;46.064;14.532;2022-12-18T12:42:52;15.57;;;7.13;;
75285;SDS011;63879;46.064;14.532;2022-12-18T12:45:22;15.38;;;7.18;;
75285;SDS011;63879;46.064;14.532;2022-12-18T12:47:53;14.43;;;6.63;;
75285;SDS011;63879;46.064;14.532;2022-12-18T12:50:20;18.52;;;7.43;;
75285;SDS011;63879;46.064;14.532;2022-12-18T12:52:47;15.13;;;7.25;;
75285;SDS011;63879;46.064;14.532;2022-12-18T12:55:20;15.93;;;6.88;;
75285;SDS011;63879;46.064;14.532;2022-12-18T13:01:01;17.55;;;7.63;;
75285;SDS011;63879;46.064;14.532;2022-12-18T13:06:41;16.80;;;8.52;;
75285;SDS011;63879;46.064;14.532;2022-12-18T13:09:18;14.55;;;7.95;;
75285;SDS011;63879;46.064;14.532;2022-12-18T13:11:44;18.27;;;8.37;;
75285;SDS011;63879;46.064;14.532;2022-12-18T13:14:29;17.85;;;8.13;;
75285;SDS011;63879;46.064;14.532;2022-12-18T13:19:44;19.35;;;8.20;;
75285;SDS011;63879;46.064;14.532;2022-12-18T13:22:22;15.77;;;7.32;;
75285;SDS011;63879;46.064;14.532;2022-12-18T13:24:48;20.42;;;8.38;;
75285;SDS011;63879;46.064;14.532;2022-12-18T13:33:43;20.98;;;8.20;;
75285;SDS011;63879;46.064;14.532;2022-12-18T13:38:32;13.27;;;7.20;;
75285;SDS011;63879;46.064;14.532;2022-12-18T13:41:00;16.10;;;7.75;;
75285;SDS011;63879;46.064;14.532;2022-12-18T13:43:28;16.00;;;7.68;;
75285;SDS011;63879;46.064;14.532;2022-12-18T13:48:26;15.05;;;8.27;;
75285;SDS011;63879;46.064;14.532;2022-12-18T13:50:56;15.25;;;8.40;;
75285;SDS011;63879;46.064;14.532;2022-12-18T13:53:24;15.10;;;7.75;;
75285;SDS011;63879;46.064;14.532;2022-12-18T13:55:52;16.30;;;7.40;;
75285;SDS011;63879;46.064;14.532;2022-12-18T13:58:18;18.00;;;8.38;;
75285;SDS011;63879;46.064;14.532;2022-12-18T14:00:44;17.45;;;8.40;;
75285;SDS011;63879;46.064;14.532;2022-12-18T14:03:20;17.80;;;8.15;;
75285;SDS011;63879;46.064;14.532;2022-12-18T14:05:52;15.05;;;7.72;;
75285;SDS011;63879;46.064;14.532;2022-12-18T14:08:19;17.42;;;7.97;;
75285;SDS011;63879;46.064;14.532;2022-12-18T14:10:46;18.05;;;7.32;;
75285;SDS011;63879;46.064;14.532;2022-12-18T14:13:32;16.17;;;7.97;;
75285;SDS011;63879;46.064;14.532;2022-12-18T14:16:00;18.33;;;8.35;;
75285;SDS011;63879;46.064;14.532;2022-12-18T14:18:45;16.75;;;7.88;;
75285;SDS011;63879;46.064;14.532;2022-12-18T14:21:20;16.20;;;7.32;;
75285;SDS011;63879;46.064;14.532;2022-12-18T14:28:52;16.50;;;8.13;;
75285;SDS011;63879;46.064;14.532;2022-12-18T14:31:23;18.38;;;8.60;;
75285;SDS011;63879;46.064;14.532;2022-12-18T14:33:50;15.50;;;7.53;;
75285;SDS011;63879;46.064;14.532;2022-12-18T14:36:25;15.35;;;6.75;;
75285;SDS011;63879;46.064;14.532;2022-12-18T14:38:52;12.82;;;7.00;;
75285;SDS011;63879;46.064;14.532;2022-12-18T14:41:19;15.15;;;7.30;;
75285;SDS011;63879;46.064;14.532;2022-12-18T14:43:49;17.40;;;8.05;;
75285;SDS011;63879;46.064;14.532;2022-12-18T14:46:30;13.73;;;6.70;;
75285;SDS011;63879;46.064;14.532;2022-12-18T14:48:58;15.25;;;6.97;;
75285;SDS011;63879;46.064;14.532;2022-12-18T14:51:31;15.07;;;7.18;;
75285;SDS011;63879;46.064;14.532;2022-12-18T14:56:27;17.23;;;8.27;;
75285;SDS011;63879;46.064;14.532;2022-12-18T14:59:00;16.83;;;8.15;;
75285;SDS011;63879;46.064;14.532;2022-12-18T15:01:28;17.25;;;8.05;;
75285;SDS011;63879;46.064;14.532;2022-12-18T15:03:55;16.35;;;7.30;;
75285;SDS011;63879;46.064;14.532;2022-12-18T15:06:24;16.25;;;7.15;;
75285;SDS011;63879;46.064;14.532;2022-12-18T15:09:02;15.30;;;7.43;;
75285;SDS011;63879;46.064;14.532;2022-12-18T15:11:33;15.32;;;7.40;;
75285;SDS011;63879;46.064;14.532;2022-12-18T15:16:58;17.80;;;8.00;;
75285;SDS011;63879;46.064;14.532;2022-12-18T15:19:42;16.98;;;7.10;;
75285;SDS011;63879;46.064;14.532;2022-12-18T15:22:42;15.55;;;7.22;;
75285;SDS011;63879;46.064;14.532;2022-12-18T15:25:00;15.05;;;7.38;;
75285;SDS011;63879;46.064;14.532;2022-12-18T15:27:29;14.40;;;6.88;;
75285;SDS011;63879;46.064;14.532;2022-12-18T15:32:32;16.63;;;7.70;;
75285;SDS011;63879;46.064;14.532;2022-12-18T15:37:38;15.18;;;6.93;;
75285;SDS011;63879;46.064;14.532;2022-12-18T15:40:03;14.50;;;7.93;;
75285;SDS011;63879;46.064;14.532;2022-12-18T15:42:29;17.23;;;8.23;;
75285;SDS011;63879;46.064;14.532;2022-12-18T15:45:13;14.93;;;7.03;;
75285;SDS011;63879;46.064;14.532;2022-12-18T15:47:39;14.25;;;6.40;;
75285;SDS011;63879;46.064;14.532;2022-12-18T15:50:06;15.18;;;7.22;;
75285;SDS011;63879;46.064;14.532;2022-12-18T15:52:34;13.82;;;6.72;;
75285;SDS011;63879;46.064;14.532;2022-12-18T15:55:14;10.63;;;4.95;;
75285;SDS011;63879;46.064;14.532;2022-12-18T15:58:03;14.52;;;6.72;;
75285;SDS011;63879;46.064;14.532;2022-12-18T16:00:29;15.32;;;7.35;;
75285;SDS011;63879;46.064;14.532;2022-12-18T16:02:54;14.65;;;6.88;;
75285;SDS011;63879;46.064;14.532;2022-12-18T16:05:20;15.27;;;6.73;;
75285;SDS011;63879;46.064;14.532;2022-12-18T16:07:47;14.43;;;6.43;;
75285;SDS011;63879;46.064;14.532;2022-12-18T16:10:13;13.40;;;6.53;;
75285;SDS011;63879;46.064;14.532;2022-12-18T16:12:38;15.60;;;7.22;;
75285;SDS011;63879;46.064;14.532;2022-12-18T16:15:04;14.65;;;6.75;;
75285;SDS011;63879;46.064;14.532;2022-12-18T16:17:31;16.45;;;7.07;;
75285;SDS011;63879;46.064;14.532;2022-12-18T16:19:56;14.00;;;6.28;;
75285;SDS011;63879;46.064;14.532;2022-12-18T16:22:23;15.88;;;7.38;;
75285;SDS011;63879;46.064;14.532;2022-12-18T16:24:50;16.95;;;8.15;;
75285;SDS011;63879;46.064;14.532;2022-12-18T16:27:16;18.02;;;7.82;;
75285;SDS011;63879;46.064;14.532;2022-12-18T16:29:42;18.08;;;8.60;;
75285;SDS011;63879;46.064;14.532;2022-12-18T16:32:08;16.23;;;8.07;;
75285;SDS011;63879;46.064;14.532;2022-12-18T16:34:34;16.73;;;8.57;;
75285;SDS011;63879;46.064;14.532;2022-12-18T16:37:01;15.95;;;7.35;;
75285;SDS011;63879;46.064;14.532;2022-12-18T16:39:30;17.98;;;7.32;;
75285;SDS011;63879;46.064;14.532;2022-12-18T16:41:56;14.55;;;7.15;;
75285;SDS011;63879;46.064;14.532;2022-12-18T16:44:21;15.65;;;7.38;;
75285;SDS011;63879;46.064;14.532;2022-12-18T16:46:47;15.35;;;7.30;;
75285;SDS011;63879;46.064;14.532;2022-12-18T16:49:13;16.67;;;7.53;;
75285;SDS011;63879;46.064;14.532;2022-12-18T16:51:39;18.75;;;8.30;;
75285;SDS011;63879;46.064;14.532;2022-12-18T16:54:05;17.10;;;8.52;;
75285;SDS011;63879;46.064;14.532;2022-12-18T16:56:30;19.25;;;7.65;;
75285;SDS011;63879;46.064;14.532;2022-12-18T16:58:56;15.20;;;7.20;;
75285;SDS011;63879;46.064;14.532;2022-12-18T17:01:23;19.50;;;8.73;;
75285;SDS011;63879;46.064;14.532;2022-12-18T17:04:22;18.73;;;8.20;;
75285;SDS011;63879;46.064;14.532;2022-12-18T17:06:41;21.35;;;8.68;;
75285;SDS011;63879;46.064;14.532;2022-12-18T17:09:09;16.90;;;7.05;;
75285;SDS011;63879;46.064;14.532;2022-12-18T17:11:38;14.60;;;6.57;;
75285;SDS011;63879;46.064;14.532;2022-12-18T17:14:12;14.40;;;6.55;;
75285;SDS011;63879;46.064;14.532;2022-12-18T17:16:39;16.73;;;8.07;;
75285;SDS011;63879;46.064;14.532;2022-12-18T17:19:05;19.90;;;7.90;;
75285;SDS011;63879;46.064;14.532;2022-12-18T17:21:30;17.52;;;7.45;;
75285;SDS011;63879;46.064;14.532;2022-12-18T17:23:58;14.20;;;6.82;;
75285;SDS011;63879;46.064;14.532;2022-12-18T17:26:24;18.15;;;8.13;;
75285;SDS011;63879;46.064;14.532;2022-12-18T17:28:49;15.70;;;7.45;;
75285;SDS011;63879;46.064;14.532;2022-12-18T17:31:16;17.05;;;7.55;;
75285;SDS011;63879;46.064;14.532;2022-12-18T17:33:43;13.15;;;6.93;;
75285;SDS011;63879;46.064;14.532;2022-12-18T17:36:09;15.85;;;7.93;;
75285;SDS011;63879;46.064;14.532;2022-12-18T17:38:35;18.70;;;8.50;;
75285;SDS011;63879;46.064;14.532;2022-12-18T17:41:02;17.80;;;8.52;;
75285;SDS011;63879;46.064;14.532;2022-12-18T17:43:29;16.60;;;7.63;;
75285;SDS011;63879;46.064;14.532;2022-12-18T17:45:54;18.23;;;7.50;;
75285;SDS011;63879;46.064;14.532;2022-12-18T17:48:20;18.27;;;7.97;;
75285;SDS011;63879;46.064;14.532;2022-12-18T17:50:46;18.70;;;7.63;;
75285;SDS011;63879;46.064;14.532;2022-12-18T17:53:11;15.20;;;7.73;;
75285;SDS011;63879;46.064;14.532;2022-12-18T17:55:36;18.30;;;8.18;;
75285;SDS011;63879;46.064;14.532;2022-12-18T17:58:02;20.17;;;9.03;;
75285;SDS011;63879;46.064;14.532;2022-12-18T18:00:27;17.42;;;8.43;;
75285;SDS011;63879;46.064;14.532;2022-12-18T18:02:53;15.82;;;7.85;;
75285;SDS011;63879;46.064;14.532;2022-12-18T18:05:19;15.52;;;7.18;;
75285;SDS011;63879;46.064;14.532;2022-12-18T18:07:48;17.17;;;7.70;;
75285;SDS011;63879;46.064;14.532;2022-12-18T18:10:13;16.27;;;8.80;;
75285;SDS011;63879;46.064;14.532;2022-12-18T18:12:38;17.48;;;8.57;;
75285;SDS011;63879;46.064;14.532;2022-12-18T18:15:22;17.98;;;8.68;;
75285;SDS011;63879;46.064;14.532;2022-12-18T18:17:48;17.97;;;7.83;;
75285;SDS011;63879;46.064;14.532;2022-12-18T18:20:16;18.92;;;8.25;;
75285;SDS011;63879;46.064;14.532;2022-12-18T18:22:42;18.13;;;9.77;;
75285;SDS011;63879;46.064;14.532;2022-12-18T18:25:07;20.55;;;8.95;;
75285;SDS011;63879;46.064;14.532;2022-12-18T18:27:33;15.50;;;7.07;;
75285;SDS011;63879;46.064;14.532;2022-12-18T18:29:58;15.80;;;7.33;;
75285;SDS011;63879;46.064;14.532;2022-12-18T18:32:23;14.70;;;7.60;;
75285;SDS011;63879;46.064;14.532;2022-12-18T18:34:49;17.57;;;8.43;;
75285;SDS011;63879;46.064;14.532;2022-12-18T18:37:14;16.75;;;8.20;;
75285;SDS011;63879;46.064;14.532;2022-12-18T18:39:40;17.48;;;7.50;;
75285;SDS011;63879;46.064;14.532;2022-12-18T18:42:05;19.10;;;9.05;;
75285;SDS011;63879;46.064;14.532;2022-12-18T18:44:31;19.67;;;8.50;;
75285;SDS011;63879;46.064;14.532;2022-12-18T18:46:57;20.33;;;9.75;;
75285;SDS011;63879;46.064;14.532;2022-12-18T18:49:23;19.02;;;9.73;;
75285;SDS011;63879;46.064;14.532;2022-12-18T18:51:51;18.90;;;9.18;;
75285;SDS011;63879;46.064;14.532;2022-12-18T18:54:17;19.38;;;9.68;;
75285;SDS011;63879;46.064;14.532;2022-12-18T18:56:42;18.50;;;10.02;;
75285;SDS011;63879;46.064;14.532;2022-12-18T18:59:08;20.27;;;10.00;;
75285;SDS011;63879;46.064;14.532;2022-12-18T19:01:34;24.38;;;10.88;;
75285;SDS011;63879;46.064;14.532;2022-12-18T19:04:04;23.83;;;10.43;;
75285;SDS011;63879;46.064;14.532;2022-12-18T19:06:33;20.55;;;9.02;;
75285;SDS011;63879;46.064;14.532;2022-12-18T19:09:01;20.17;;;8.93;;
75285;SDS011;63879;46.064;14.532;2022-12-18T19:11:30;16.48;;;7.85;;
75285;SDS011;63879;46.064;14.532;2022-12-18T19:14:15;15.88;;;7.35;;
75285;SDS011;63879;46.064;14.532;2022-12-18T19:16:41;19.52;;;8.30;;
75285;SDS011;63879;46.064;14.532;2022-12-18T19:19:07;16.70;;;7.97;;
75285;SDS011;63879;46.064;14.532;2022-12-18T19:21:34;13.65;;;7.75;;
75285;SDS011;63879;46.064;14.532;2022-12-18T19:24:03;17.45;;;8.40;;
75285;SDS011;63879;46.064;14.532;2022-12-18T19:26:33;15.40;;;7.50;;
75285;SDS011;63879;46.064;14.532;2022-12-18T19:29:00;15.02;;;7.82;;
75285;SDS011;63879;46.064;14.532;2022-12-18T19:31:27;14.30;;;6.38;;
75285;SDS011;63879;46.064;14.532;2022-12-18T19:33:54;10.55;;;5.82;;
75285;SDS011;63879;46.064;14.532;2022-12-18T19:36:24;10.00;;;5.25;;
75285;SDS011;63879;46.064;14.532;2022-12-18T19:38:52;11.77;;;5.20;;
75285;SDS011;63879;46.064;14.532;2022-12-18T19:41:19;9.23;;;3.88;;
75285;SDS011;63879;46.064;14.532;2022-12-18T19:43:45;8.63;;;4.78;;
75285;SDS011;63879;46.064;14.532;2022-12-18T19:46:12;10.15;;;4.45;;
75285;SDS011;63879;46.064;14.532;2022-12-18T19:48:41;9.02;;;4.20;;
75285;SDS011;63879;46.064;14.532;2022-12-18T19:51:11;11.25;;;5.57;;
75285;SDS011;63879;46.064;14.532;2022-12-18T19:53:42;9.75;;;5.32;;
75285;SDS011;63879;46.064;14.532;2022-12-18T19:56:08;9.13;;;4.35;;
75285;SDS011;63879;46.064;14.532;2022-12-18T19:58:36;14.95;;;6.32;;
75285;SDS011;63879;46.064;14.532;2022-12-18T20:01:02;10.90;;;6.05;;
75285;SDS011;63879;46.064;14.532;2022-12-18T20:03:28;10.18;;;5.22;;
75285;SDS011;63879;46.064;14.532;2022-12-18T20:05:54;10.70;;;5.07;;
75285;SDS011;63879;46.064;14.532;2022-12-18T20:08:20;10.10;;;5.05;;
75285;SDS011;63879;46.064;14.532;2022-12-18T20:10:45;12.13;;;5.43;;
75285;SDS011;63879;46.064;14.532;2022-12-18T20:13:14;10.95;;;5.75;;
75285;SDS011;63879;46.064;14.532;2022-12-18T20:15:40;13.57;;;5.63;;
75285;SDS011;63879;46.064;14.532;2022-12-18T20:18:07;13.20;;;5.90;;
75285;SDS011;63879;46.064;14.532;2022-12-18T20:20:33;12.40;;;7.50;;
75285;SDS011;63879;46.064;14.532;2022-12-18T20:22:59;15.50;;;6.55;;
75285;SDS011;63879;46.064;14.532;2022-12-18T20:25:24;12.15;;;5.72;;
75285;SDS011;63879;46.064;14.532;2022-12-18T20:27:49;11.02;;;5.60;;
75285;SDS011;63879;46.064;14.532;2022-12-18T20:30:15;12.90;;;6.25;;
75285;SDS011;63879;46.064;14.532;2022-12-18T20:32:41;13.20;;;5.88;;
75285;SDS011;63879;46.064;14.532;2022-12-18T20:35:09;13.75;;;6.55;;
75285;SDS011;63879;46.064;14.532;2022-12-18T20:40:00;13.50;;;5.63;;
75285;SDS011;63879;46.064;14.532;2022-12-18T20:42:28;15.10;;;7.10;;
75285;SDS011;63879;46.064;14.532;2022-12-18T20:44:53;12.68;;;6.07;;
75285;SDS011;63879;46.064;14.532;2022-12-18T20:47:19;12.25;;;5.82;;
75285;SDS011;63879;46.064;14.532;2022-12-18T20:49:44;12.32;;;6.60;;
75285;SDS011;63879;46.064;14.532;2022-12-18T20:52:10;12.75;;;6.28;;
75285;SDS011;63879;46.064;14.532;2022-12-18T20:54:35;15.77;;;6.65;;
75285;SDS011;63879;46.064;14.532;2022-12-18T20:57:01;12.60;;;6.15;;
75285;SDS011;63879;46.064;14.532;2022-12-18T20:59:26;9.80;;;4.95;;
75285;SDS011;63879;46.064;14.532;2022-12-18T21:01:55;12.63;;;5.68;;
75285;SDS011;63879;46.064;14.532;2022-12-18T21:04:21;8.80;;;4.82;;
75285;SDS011;63879;46.064;14.532;2022-12-18T21:06:47;14.23;;;5.57;;
75285;SDS011;63879;46.064;14.532;2022-12-18T21:09:13;10.98;;;4.82;;
75285;SDS011;63879;46.064;14.532;2022-12-18T21:11:39;9.68;;;5.05;;
75285;SDS011;63879;46.064;14.532;2022-12-18T21:14:24;10.75;;;5.60;;
75285;SDS011;63879;46.064;14.532;2022-12-18T21:19:21;11.60;;;5.15;;
75285;SDS011;63879;46.064;14.532;2022-12-18T21:21:48;11.80;;;5.30;;
75285;SDS011;63879;46.064;14.532;2022-12-18T21:24:18;9.15;;;5.13;;
75285;SDS011;63879;46.064;14.532;2022-12-18T21:26:44;9.52;;;5.13;;
75285;SDS011;63879;46.064;14.532;2022-12-18T21:29:12;10.05;;;5.55;;
75285;SDS011;63879;46.064;14.532;2022-12-18T21:31:39;9.20;;;4.63;;
75285;SDS011;63879;46.064;14.532;2022-12-18T21:34:05;11.07;;;5.13;;
75285;SDS011;63879;46.064;14.532;2022-12-18T21:36:32;11.68;;;5.60;;
75285;SDS011;63879;46.064;14.532;2022-12-18T21:38:58;9.80;;;4.82;;
75285;SDS011;63879;46.064;14.532;2022-12-18T21:41:24;8.82;;;4.30;;
75285;SDS011;63879;46.064;14.532;2022-12-18T21:44:10;9.15;;;4.70;;
75285;SDS011;63879;46.064;14.532;2022-12-18T21:49:04;10.85;;;4.68;;
75285;SDS011;63879;46.064;14.532;2022-12-18T21:51:31;10.20;;;4.82;;
75285;SDS011;63879;46.064;14.532;2022-12-18T21:53:57;10.60;;;5.00;;
75285;SDS011;63879;46.064;14.532;2022-12-18T21:56:22;11.10;;;5.88;;
75285;SDS011;63879;46.064;14.532;2022-12-18T21:58:49;10.93;;;5.32;;
